sensor_id;sensor_type;location;lat;lon;timestamp;pressure;altitude;pressure_sealevel;temperature
20867;BMP280;10593;48.398;10.698;2022-10-31T00:02:21;96662.25;;;20.03
20867;BMP280;10593;48.398;10.698;2022-10-31T00:04:47;96662.25;;;20.03
20867;BMP280;10593;48.398;10.698;2022-10-31T00:07:13;96670.09;;;20.02
20867;BMP280;10593;48.398;10.698;2022-10-31T00:09:38;96667.56;;;20.00
20867;BMP280;10593;48.398;10.698;2022-10-31T00:12:04;96660.66;;;19.99
20867;BMP280;10593;48.398;10.698;2022-10-31T00:14:30;96663.34;;;19.98
20867;BMP280;10593;48.398;10.698;2022-10-31T00:16:56;96658.97;;;19.98
20867;BMP280;10593;48.398;10.698;2022-10-31T00:19:21;96660.81;;;19.96
20867;BMP280;10593;48.398;10.698;2022-10-31T00:21:47;96653.91;;;19.95
20867;BMP280;10593;48.398;10.698;2022-10-31T00:24:12;96660.88;;;19.95
20867;BMP280;10593;48.398;10.698;2022-10-31T00:26:38;96660.09;;;19.93
20867;BMP280;10593;48.398;10.698;2022-10-31T00:29:04;96655.75;;;19.93
20867;BMP280;10593;48.398;10.698;2022-10-31T00:31:30;96656.72;;;19.91
20867;BMP280;10593;48.398;10.698;2022-10-31T00:33:57;96658.50;;;19.90
20867;BMP280;10593;48.398;10.698;2022-10-31T00:36:23;96659.38;;;19.89
20867;BMP280;10593;48.398;10.698;2022-10-31T00:38:49;96662.91;;;19.88
20867;BMP280;10593;48.398;10.698;2022-10-31T00:41:17;96667.31;;;19.88
20867;BMP280;10593;48.398;10.698;2022-10-31T00:43:43;96669.97;;;19.86
20867;BMP280;10593;48.398;10.698;2022-10-31T00:46:11;96670.91;;;19.85
20867;BMP280;10593;48.398;10.698;2022-10-31T00:48:36;96664.91;;;19.83
20867;BMP280;10593;48.398;10.698;2022-10-31T00:51:02;96668.44;;;19.82
20867;BMP280;10593;48.398;10.698;2022-10-31T00:53:29;96668.44;;;19.82
20867;BMP280;10593;48.398;10.698;2022-10-31T00:55:55;96672.03;;;19.80
20867;BMP280;10593;48.398;10.698;2022-10-31T00:58:21;96672.88;;;19.80
20867;BMP280;10593;48.398;10.698;2022-10-31T01:00:48;96676.47;;;19.78
20867;BMP280;10593;48.398;10.698;2022-10-31T01:03:22;96672.13;;;19.78
20867;BMP280;10593;48.398;10.698;2022-10-31T01:06:06;96673.16;;;19.74
20867;BMP280;10593;48.398;10.698;2022-10-31T01:08:33;96666.25;;;19.73
20867;BMP280;10593;48.398;10.698;2022-10-31T01:11:12;96667.16;;;19.72
20867;BMP280;10593;48.398;10.698;2022-10-31T01:13:38;96662.09;;;19.69
20867;BMP280;10593;48.398;10.698;2022-10-31T01:16:05;96663.94;;;19.67
20867;BMP280;10593;48.398;10.698;2022-10-31T01:18:32;96664.88;;;19.66
20867;BMP280;10593;48.398;10.698;2022-10-31T01:21:23;96658.88;;;19.64
20867;BMP280;10593;48.398;10.698;2022-10-31T01:23:53;96665.00;;;19.63
20867;BMP280;10593;48.398;10.698;2022-10-31T01:26:23;96666.81;;;19.61
20867;BMP280;10593;48.398;10.698;2022-10-31T01:28:55;96668.66;;;19.59
20867;BMP280;10593;48.398;10.698;2022-10-31T01:31:24;96663.44;;;19.59
20867;BMP280;10593;48.398;10.698;2022-10-31T01:33:51;96675.72;;;19.57
20867;BMP280;10593;48.398;10.698;2022-10-31T01:38:47;96677.59;;;19.54
20867;BMP280;10593;48.398;10.698;2022-10-31T01:41:17;96679.38;;;19.53
20867;BMP280;10593;48.398;10.698;2022-10-31T01:46:46;96678.66;;;19.50
20867;BMP280;10593;48.398;10.698;2022-10-31T01:49:33;96687.47;;;19.47
20867;BMP280;10593;48.398;10.698;2022-10-31T01:54:39;96680.66;;;19.45
20867;BMP280;10593;48.398;10.698;2022-10-31T01:57:10;96684.16;;;19.44
20867;BMP280;10593;48.398;10.698;2022-10-31T01:59:47;96674.72;;;19.41
20867;BMP280;10593;48.398;10.698;2022-10-31T02:02:17;96681.69;;;19.41
20867;BMP280;10593;48.398;10.698;2022-10-31T02:04:43;96684.38;;;19.39
20867;BMP280;10593;48.398;10.698;2022-10-31T02:10:19;96676.69;;;19.36
20867;BMP280;10593;48.398;10.698;2022-10-31T02:12:46;96681.09;;;19.34
20867;BMP280;10593;48.398;10.698;2022-10-31T02:15:12;96682.94;;;19.32
20867;BMP280;10593;48.398;10.698;2022-10-31T02:17:38;96676.91;;;19.32
20867;BMP280;10593;48.398;10.698;2022-10-31T02:20:24;96672.66;;;19.29
20867;BMP280;10593;48.398;10.698;2022-10-31T02:33:15;96660.22;;;19.16
20867;BMP280;10593;48.398;10.698;2022-10-31T02:35:27;96665.50;;;19.14
20867;BMP280;10593;48.398;10.698;2022-10-31T02:38:27;96663.03;;;19.11
20867;BMP280;10593;48.398;10.698;2022-10-31T02:42:07;96664.78;;;19.11
20867;BMP280;10593;48.398;10.698;2022-10-31T02:47:37;96658.94;;;19.06
20867;BMP280;10593;48.398;10.698;2022-10-31T02:50:15;96658.94;;;19.06
20867;BMP280;10593;48.398;10.698;2022-10-31T02:52:43;96660.78;;;19.04
20867;BMP280;10593;48.398;10.698;2022-10-31T02:58:05;96662.50;;;19.03
20867;BMP280;10593;48.398;10.698;2022-10-31T03:00:43;96661.69;;;19.03
20867;BMP280;10593;48.398;10.698;2022-10-31T03:03:25;96664.34;;;19.02
20867;BMP280;10593;48.398;10.698;2022-10-31T03:09:22;96662.81;;;18.98
20867;BMP280;10593;48.398;10.698;2022-10-31T03:12:13;96658.56;;;18.95
20867;BMP280;10593;48.398;10.698;2022-10-31T03:14:53;96668.19;;;18.93
20867;BMP280;10593;48.398;10.698;2022-10-31T03:17:37;96663.91;;;18.92
20867;BMP280;10593;48.398;10.698;2022-10-31T03:20:09;96656.09;;;18.92
20867;BMP280;10593;48.398;10.698;2022-10-31T03:22:37;96661.38;;;18.91
20867;BMP280;10593;48.398;10.698;2022-10-31T03:25:07;96659.63;;;18.91
20867;BMP280;10593;48.398;10.698;2022-10-31T03:27:37;96657.06;;;18.90
20867;BMP280;10593;48.398;10.698;2022-10-31T03:30:06;96666.66;;;18.89
20867;BMP280;10593;48.398;10.698;2022-10-31T03:32:47;96658.03;;;18.87
20867;BMP280;10593;48.398;10.698;2022-10-31T03:35:18;96662.41;;;18.87
20867;BMP280;10593;48.398;10.698;2022-10-31T03:37:46;96659.03;;;18.85
20867;BMP280;10593;48.398;10.698;2022-10-31T03:40:15;96657.34;;;18.84
20867;BMP280;10593;48.398;10.698;2022-10-31T03:42:52;96660.00;;;18.82
20867;BMP280;10593;48.398;10.698;2022-10-31T03:45:26;96652.25;;;18.81
20867;BMP280;10593;48.398;10.698;2022-10-31T03:47:54;96652.34;;;18.79
20867;BMP280;10593;48.398;10.698;2022-10-31T03:50:25;96647.19;;;18.78
20867;BMP280;10593;48.398;10.698;2022-10-31T03:53:04;96651.56;;;18.77
20867;BMP280;10593;48.398;10.698;2022-10-31T03:55:58;96649.06;;;18.74
20867;BMP280;10593;48.398;10.698;2022-10-31T03:58:33;96650.84;;;18.74
20867;BMP280;10593;48.398;10.698;2022-10-31T04:01:06;96645.69;;;18.72
20867;BMP280;10593;48.398;10.698;2022-10-31T04:03:35;96642.25;;;18.72
20867;BMP280;10593;48.398;10.698;2022-10-31T04:06:08;96643.16;;;18.71
20867;BMP280;10593;48.398;10.698;2022-10-31T04:08:44;96643.22;;;18.69
20867;BMP280;10593;48.398;10.698;2022-10-31T04:11:13;96640.66;;;18.68
20867;BMP280;10593;48.398;10.698;2022-10-31T04:13:41;96638.97;;;18.67
20867;BMP280;10593;48.398;10.698;2022-10-31T04:16:10;96646.00;;;18.65
20867;BMP280;10593;48.398;10.698;2022-10-31T04:18:37;96653.00;;;18.64
20867;BMP280;10593;48.398;10.698;2022-10-31T04:21:06;96647.84;;;18.63
20867;BMP280;10593;48.398;10.698;2022-10-31T04:23:34;96654.81;;;18.62
20867;BMP280;10593;48.398;10.698;2022-10-31T04:26:00;96654.00;;;18.60
20867;BMP280;10593;48.398;10.698;2022-10-31T04:28:26;96647.97;;;18.60
20867;BMP280;10593;48.398;10.698;2022-10-31T04:30:52;96655.84;;;18.58
20867;BMP280;10593;48.398;10.698;2022-10-31T04:33:19;96650.63;;;18.58
20867;BMP280;10593;48.398;10.698;2022-10-31T04:35:45;96641.22;;;18.56
20867;BMP280;10593;48.398;10.698;2022-10-31T04:38:11;96640.34;;;18.55
20867;BMP280;10593;48.398;10.698;2022-10-31T04:40:37;96640.41;;;18.54
20867;BMP280;10593;48.398;10.698;2022-10-31T04:43:03;96632.69;;;18.52
20867;BMP280;10593;48.398;10.698;2022-10-31T04:45:29;96642.25;;;18.52
20867;BMP280;10593;48.398;10.698;2022-10-31T04:47:54;96641.47;;;18.50
20867;BMP280;10593;48.398;10.698;2022-10-31T04:50:20;96634.56;;;18.49
20867;BMP280;10593;48.398;10.698;2022-10-31T04:52:46;96645.94;;;18.46
20867;BMP280;10593;48.398;10.698;2022-10-31T04:55:13;96632.94;;;18.46
20867;BMP280;10593;48.398;10.698;2022-10-31T04:57:48;96638.22;;;18.45
20867;BMP280;10593;48.398;10.698;2022-10-31T05:00:18;96637.44;;;18.43
20867;BMP280;10593;48.398;10.698;2022-10-31T05:02:53;96640.09;;;18.41
20867;BMP280;10593;48.398;10.698;2022-10-31T05:05:23;96638.44;;;18.39
20867;BMP280;10593;48.398;10.698;2022-10-31T05:07:50;96636.75;;;18.38
20867;BMP280;10593;48.398;10.698;2022-10-31T05:10:23;96640.28;;;18.37
20867;BMP280;10593;48.398;10.698;2022-10-31T05:12:56;96636.00;;;18.36
20867;BMP280;10593;48.398;10.698;2022-10-31T05:15:24;96630.91;;;18.33
20867;BMP280;10593;48.398;10.698;2022-10-31T05:17:50;96631.84;;;18.32
20867;BMP280;10593;48.398;10.698;2022-10-31T05:20:20;96631.06;;;18.30
20867;BMP280;10593;48.398;10.698;2022-10-31T05:22:52;96626.69;;;18.30
20867;BMP280;10593;48.398;10.698;2022-10-31T05:25:20;96620.69;;;18.28
20867;BMP280;10593;48.398;10.698;2022-10-31T05:27:48;96619.88;;;18.26
20867;BMP280;10593;48.398;10.698;2022-10-31T05:30:19;96623.41;;;18.25
20867;BMP280;10593;48.398;10.698;2022-10-31T05:32:47;96619.13;;;18.24
20867;BMP280;10593;48.398;10.698;2022-10-31T05:35:16;96617.47;;;18.22
20867;BMP280;10593;48.398;10.698;2022-10-31T05:37:43;96625.28;;;18.22
20867;BMP280;10593;48.398;10.698;2022-10-31T05:40:12;96621.03;;;18.19
20867;BMP280;10593;48.398;10.698;2022-10-31T05:42:39;96619.34;;;18.18
20867;BMP280;10593;48.398;10.698;2022-10-31T05:45:08;96613.31;;;18.18
20867;BMP280;10593;48.398;10.698;2022-10-31T05:47:34;96617.78;;;18.14
20867;BMP280;10593;48.398;10.698;2022-10-31T05:50:00;96614.31;;;18.14
20867;BMP280;10593;48.398;10.698;2022-10-31T05:52:25;96615.25;;;18.13
20867;BMP280;10593;48.398;10.698;2022-10-31T05:54:51;96615.31;;;18.11
20867;BMP280;10593;48.398;10.698;2022-10-31T05:57:17;96620.56;;;18.10
20867;BMP280;10593;48.398;10.698;2022-10-31T05:59:42;96620.56;;;18.10
20867;BMP280;10593;48.398;10.698;2022-10-31T06:02:08;96612.84;;;18.08
20867;BMP280;10593;48.398;10.698;2022-10-31T06:04:34;96617.19;;;18.08
20867;BMP280;10593;48.398;10.698;2022-10-31T06:06:59;96613.81;;;18.06
20867;BMP280;10593;48.398;10.698;2022-10-31T06:09:25;96622.53;;;18.05
20867;BMP280;10593;48.398;10.698;2022-10-31T06:11:50;96626.03;;;18.04
20867;BMP280;10593;48.398;10.698;2022-10-31T06:14:16;96625.19;;;18.03
20867;BMP280;10593;48.398;10.698;2022-10-31T06:16:42;96622.56;;;18.03
20867;BMP280;10593;48.398;10.698;2022-10-31T06:19:07;96614.91;;;18.00
20867;BMP280;10593;48.398;10.698;2022-10-31T06:21:33;96621.84;;;18.00
20867;BMP280;10593;48.398;10.698;2022-10-31T06:23:59;96610.66;;;17.98
20867;BMP280;10593;48.398;10.698;2022-10-31T06:26:24;96610.66;;;17.98
20867;BMP280;10593;48.398;10.698;2022-10-31T06:28:50;96618.47;;;17.98
20867;BMP280;10593;48.398;10.698;2022-10-31T06:31:15;96616.88;;;17.95
20867;BMP280;10593;48.398;10.698;2022-10-31T06:33:42;96608.19;;;17.95
20867;BMP280;10593;48.398;10.698;2022-10-31T06:36:09;96615.13;;;17.94
20867;BMP280;10593;48.398;10.698;2022-10-31T06:38:34;96609.09;;;17.94
20867;BMP280;10593;48.398;10.698;2022-10-31T06:41:05;96606.56;;;17.92
20867;BMP280;10593;48.398;10.698;2022-10-31T06:43:31;96610.06;;;17.91
20867;BMP280;10593;48.398;10.698;2022-10-31T06:45:57;96614.44;;;17.91
20867;BMP280;10593;48.398;10.698;2022-10-31T06:48:26;96609.28;;;17.89
20867;BMP280;10593;48.398;10.698;2022-10-31T06:50:52;96617.09;;;17.89
20867;BMP280;10593;48.398;10.698;2022-10-31T06:53:17;96623.19;;;17.88
20867;BMP280;10593;48.398;10.698;2022-10-31T06:55:43;96619.78;;;17.88
20867;BMP280;10593;48.398;10.698;2022-10-31T06:58:10;96621.47;;;17.89
20867;BMP280;10593;48.398;10.698;2022-10-31T07:00:36;96624.97;;;17.88
20867;BMP280;10593;48.398;10.698;2022-10-31T07:03:05;96626.66;;;17.89
20867;BMP280;10593;48.398;10.698;2022-10-31T07:05:31;96631.00;;;17.88
20867;BMP280;10593;48.398;10.698;2022-10-31T07:08:01;96630.09;;;17.89
20867;BMP280;10593;48.398;10.698;2022-10-31T07:10:30;96630.97;;;17.90
20867;BMP280;10593;48.398;10.698;2022-10-31T07:12:58;96636.16;;;17.90
20867;BMP280;10593;48.398;10.698;2022-10-31T07:15:26;96630.03;;;17.91
20867;BMP280;10593;48.398;10.698;2022-10-31T07:17:52;96626.59;;;17.90
20867;BMP280;10593;48.398;10.698;2022-10-31T07:20:19;96633.47;;;17.91
20867;BMP280;10593;48.398;10.698;2022-10-31T07:22:45;96628.28;;;17.91
20867;BMP280;10593;48.398;10.698;2022-10-31T07:25:11;96632.56;;;17.92
20867;BMP280;10593;48.398;10.698;2022-10-31T07:27:41;96630.75;;;17.94
20867;BMP280;10593;48.398;10.698;2022-10-31T07:30:10;96631.59;;;17.95
20867;BMP280;10593;48.398;10.698;2022-10-31T07:32:47;96628.94;;;17.96
20867;BMP280;10593;48.398;10.698;2022-10-31T07:35:23;96621.97;;;17.97
20867;BMP280;10593;48.398;10.698;2022-10-31T07:37:49;96627.13;;;17.98
20867;BMP280;10593;48.398;10.698;2022-10-31T07:40:16;96628.75;;;18.01
20867;BMP280;10593;48.398;10.698;2022-10-31T07:42:47;96626.16;;;18.01
20867;BMP280;10593;48.398;10.698;2022-10-31T07:45:19;96626.09;;;18.02
20867;BMP280;10593;48.398;10.698;2022-10-31T07:47:51;96623.44;;;18.04
20867;BMP280;10593;48.398;10.698;2022-10-31T07:50:38;96622.53;;;18.05
20867;BMP280;10593;48.398;10.698;2022-10-31T07:53:10;96627.59;;;18.08
20867;BMP280;10593;48.398;10.698;2022-10-31T07:55:36;96629.28;;;18.09
20867;BMP280;10593;48.398;10.698;2022-10-31T07:58:12;96630.94;;;18.11
20867;BMP280;10593;48.398;10.698;2022-10-31T08:00:42;96629.16;;;18.12
20867;BMP280;10593;48.398;10.698;2022-10-31T08:03:12;96631.72;;;18.13
20867;BMP280;10593;48.398;10.698;2022-10-31T08:05:39;96630.75;;;18.16
20867;BMP280;10593;48.398;10.698;2022-10-31T08:08:06;96627.22;;;18.17
20867;BMP280;10593;48.398;10.698;2022-10-31T08:10:34;96632.34;;;18.18
20867;BMP280;10593;48.398;10.698;2022-10-31T08:13:12;96631.38;;;18.21
20867;BMP280;10593;48.398;10.698;2022-10-31T08:15:38;96619.16;;;18.23
20867;BMP280;10593;48.398;10.698;2022-10-31T08:18:13;96621.72;;;18.24
20867;BMP280;10593;48.398;10.698;2022-10-31T08:20:41;96618.97;;;18.27
20867;BMP280;10593;48.398;10.698;2022-10-31T08:23:08;96618.97;;;18.29
20867;BMP280;10593;48.398;10.698;2022-10-31T08:25:35;96614.53;;;18.31
20867;BMP280;10593;48.398;10.698;2022-10-31T08:28:02;96609.19;;;18.34
20867;BMP280;10593;48.398;10.698;2022-10-31T08:30:34;96614.34;;;18.35
20867;BMP280;10593;48.398;10.698;2022-10-31T08:33:13;96610.75;;;18.38
20867;BMP280;10593;48.398;10.698;2022-10-31T08:35:39;96609.00;;;18.38
20867;BMP280;10593;48.398;10.698;2022-10-31T08:38:05;96603.72;;;18.40
20867;BMP280;10593;48.398;10.698;2022-10-31T08:40:34;96598.41;;;18.43
20867;BMP280;10593;48.398;10.698;2022-10-31T08:43:06;96596.56;;;18.45
20867;BMP280;10593;48.398;10.698;2022-10-31T08:45:34;96602.56;;;18.47
20867;BMP280;10593;48.398;10.698;2022-10-31T08:48:04;96591.22;;;18.48
20867;BMP280;10593;48.398;10.698;2022-10-31T08:50:32;96588.50;;;18.51
20867;BMP280;10593;48.398;10.698;2022-10-31T08:53:11;96591.88;;;18.53
20867;BMP280;10593;48.398;10.698;2022-10-31T08:55:40;96592.72;;;18.53
20867;BMP280;10593;48.398;10.698;2022-10-31T08:58:13;96589.97;;;18.56
20867;BMP280;10593;48.398;10.698;2022-10-31T09:00:39;96588.16;;;18.58
20867;BMP280;10593;48.398;10.698;2022-10-31T09:03:24;96584.59;;;18.61
20867;BMP280;10593;48.398;10.698;2022-10-31T09:05:55;96586.22;;;18.63
20867;BMP280;10593;48.398;10.698;2022-10-31T09:08:20;96580.00;;;18.66
20867;BMP280;10593;48.398;10.698;2022-10-31T09:10:46;96578.13;;;18.69
20867;BMP280;10593;48.398;10.698;2022-10-31T09:13:16;96573.63;;;18.73
20867;BMP280;10593;48.398;10.698;2022-10-31T09:15:44;96573.50;;;18.76
20867;BMP280;10593;48.398;10.698;2022-10-31T09:18:12;96570.75;;;18.79
20867;BMP280;10593;48.398;10.698;2022-10-31T09:20:40;96572.31;;;18.83
20867;BMP280;10593;48.398;10.698;2022-10-31T09:23:22;96568.66;;;18.87
20867;BMP280;10593;48.398;10.698;2022-10-31T09:25:51;96561.63;;;18.89
20867;BMP280;10593;48.398;10.698;2022-10-31T09:28:20;96567.53;;;18.92
20867;BMP280;10593;48.398;10.698;2022-10-31T09:30:49;96562.13;;;18.97
20867;BMP280;10593;48.398;10.698;2022-10-31T09:33:15;96561.13;;;18.99
20867;BMP280;10593;48.398;10.698;2022-10-31T09:35:41;96561.84;;;19.02
20867;BMP280;10593;48.398;10.698;2022-10-31T09:38:13;96552.97;;;19.06
20867;BMP280;10593;48.398;10.698;2022-10-31T09:40:43;96548.50;;;19.08
20867;BMP280;10593;48.398;10.698;2022-10-31T09:50:00;96552.38;;;19.20
20867;BMP280;10593;48.398;10.698;2022-10-31T09:52:36;96544.25;;;19.26
20867;BMP280;10593;48.398;10.698;2022-10-31T09:55:35;96548.34;;;19.31
20867;BMP280;10593;48.398;10.698;2022-10-31T09:58:02;96546.44;;;19.35
20867;BMP280;10593;48.398;10.698;2022-10-31T10:00:29;96547.91;;;19.40
20867;BMP280;10593;48.398;10.698;2022-10-31T10:05:46;96539.50;;;19.52
20867;BMP280;10593;48.398;10.698;2022-10-31T10:08:29;96535.00;;;19.56
20867;BMP280;10593;48.398;10.698;2022-10-31T10:16:31;96536.00;;;19.70
20867;BMP280;10593;48.398;10.698;2022-10-31T10:19:34;96528.13;;;19.72
20867;BMP280;10593;48.398;10.698;2022-10-31T10:22:30;96533.19;;;19.75
20867;BMP280;10593;48.398;10.698;2022-10-31T10:25:22;96530.34;;;19.79
20867;BMP280;10593;48.398;10.698;2022-10-31T10:28:23;96525.91;;;19.81
20867;BMP280;10593;48.398;10.698;2022-10-31T10:31:01;96532.59;;;19.87
20867;BMP280;10593;48.398;10.698;2022-10-31T10:33:37;96524.53;;;19.91
20867;BMP280;10593;48.398;10.698;2022-10-31T10:36:16;96525.13;;;19.96
20867;BMP280;10593;48.398;10.698;2022-10-31T10:38:52;96521.44;;;20.00
20867;BMP280;10593;48.398;10.698;2022-10-31T10:41:26;96516.91;;;20.05
20867;BMP280;10593;48.398;10.698;2022-10-31T10:43:52;96518.34;;;20.11
20867;BMP280;10593;48.398;10.698;2022-10-31T10:46:41;96519.88;;;20.15
20867;BMP280;10593;48.398;10.698;2022-10-31T10:49:40;96513.66;;;20.17
20867;BMP280;10593;48.398;10.698;2022-10-31T10:52:44;96504.75;;;20.21
20867;BMP280;10593;48.398;10.698;2022-10-31T10:55:48;96505.44;;;20.25
20867;BMP280;10593;48.398;10.698;2022-10-31T10:58:15;96499.19;;;20.27
20867;BMP280;10593;48.398;10.698;2022-10-31T11:00:46;96497.22;;;20.32
20867;BMP280;10593;48.398;10.698;2022-10-31T11:03:14;96498.75;;;20.36
20867;BMP280;10593;48.398;10.698;2022-10-31T11:05:57;96491.50;;;20.41
20867;BMP280;10593;48.398;10.698;2022-10-31T11:08:34;96495.72;;;20.44
20867;BMP280;10593;48.398;10.698;2022-10-31T11:13:49;96488.47;;;20.49
20867;BMP280;10593;48.398;10.698;2022-10-31T11:16:38;96481.44;;;20.51
20867;BMP280;10593;48.398;10.698;2022-10-31T11:19:17;96486.50;;;20.54
20867;BMP280;10593;48.398;10.698;2022-10-31T11:21:45;96481.19;;;20.55
20867;BMP280;10593;48.398;10.698;2022-10-31T11:24:13;96474.88;;;20.59
20867;BMP280;10593;48.398;10.698;2022-10-31T11:26:42;96479.88;;;20.64
20867;BMP280;10593;48.398;10.698;2022-10-31T11:29:21;96476.22;;;20.66
20867;BMP280;10593;48.398;10.698;2022-10-31T11:31:52;96476.06;;;20.69
20867;BMP280;10593;48.398;10.698;2022-10-31T11:36:52;96465.38;;;20.74
20867;BMP280;10593;48.398;10.698;2022-10-31T11:39:23;96473.91;;;20.77
20867;BMP280;10593;48.398;10.698;2022-10-31T11:41:52;96460.66;;;20.80
20867;BMP280;10593;48.398;10.698;2022-10-31T11:44:26;96471.88;;;20.82
20867;BMP280;10593;48.398;10.698;2022-10-31T11:46:57;96466.53;;;20.85
20867;BMP280;10593;48.398;10.698;2022-10-31T11:49:35;96457.75;;;20.86
20867;BMP280;10593;48.398;10.698;2022-10-31T11:52:17;96457.59;;;20.89
20867;BMP280;10593;48.398;10.698;2022-10-31T11:57:49;96440.06;;;20.91
20867;BMP280;10593;48.398;10.698;2022-10-31T12:00:30;96446.78;;;20.95
20867;BMP280;10593;48.398;10.698;2022-10-31T12:03:46;96443.16;;;20.98
20867;BMP280;10593;48.398;10.698;2022-10-31T12:06:23;96434.34;;;21.00
20867;BMP280;10593;48.398;10.698;2022-10-31T12:08:51;96431.53;;;21.03
20867;BMP280;10593;48.398;10.698;2022-10-31T12:15:32;96423.53;;;21.06
20867;BMP280;10593;48.398;10.698;2022-10-31T12:18:47;96421.50;;;21.11
20867;BMP280;10593;48.398;10.698;2022-10-31T12:21:40;96409.19;;;21.13
20867;BMP280;10593;48.398;10.698;2022-10-31T12:24:48;96406.41;;;21.16
20867;BMP280;10593;48.398;10.698;2022-10-31T12:30:20;96401.59;;;21.24
20867;BMP280;10593;48.398;10.698;2022-10-31T12:33:21;96390.97;;;21.27
20867;BMP280;10593;48.398;10.698;2022-10-31T12:44:55;96385.78;;;21.41
20867;BMP280;10593;48.398;10.698;2022-10-31T12:56:48;96370.13;;;21.55
20867;BMP280;10593;48.398;10.698;2022-10-31T12:59:42;96367.31;;;21.58
20867;BMP280;10593;48.398;10.698;2022-10-31T13:02:33;96366.31;;;21.60
20867;BMP280;10593;48.398;10.698;2022-10-31T13:05:16;96364.38;;;21.64
20867;BMP280;10593;48.398;10.698;2022-10-31T13:08:16;96360.94;;;21.63
20867;BMP280;10593;48.398;10.698;2022-10-31T13:11:12;96356.44;;;21.65
20867;BMP280;10593;48.398;10.698;2022-10-31T13:14:01;96357.28;;;21.66
20867;BMP280;10593;48.398;10.698;2022-10-31T13:16:35;96348.50;;;21.67
20867;BMP280;10593;48.398;10.698;2022-10-31T13:19:17;96348.31;;;21.70
20867;BMP280;10593;48.398;10.698;2022-10-31T13:27:46;96338.53;;;21.73
20867;BMP280;10593;48.398;10.698;2022-10-31T13:30:20;96338.41;;;21.75
20867;BMP280;10593;48.398;10.698;2022-10-31T13:32:52;96335.63;;;21.78
20867;BMP280;10593;48.398;10.698;2022-10-31T13:38:36;96328.63;;;21.78
20867;BMP280;10593;48.398;10.698;2022-10-31T13:46:54;96319.56;;;21.84
20867;BMP280;10593;48.398;10.698;2022-10-31T13:54:41;96316.75;;;21.87
20867;BMP280;10593;48.398;10.698;2022-10-31T13:57:22;96321.91;;;21.88
20867;BMP280;10593;48.398;10.698;2022-10-31T13:59:58;96314.06;;;21.88
20867;BMP280;10593;48.398;10.698;2022-10-31T14:02:35;96322.72;;;21.89
20867;BMP280;10593;48.398;10.698;2022-10-31T14:05:06;96321.78;;;21.90
20867;BMP280;10593;48.398;10.698;2022-10-31T14:07:45;96314.06;;;21.88
20867;BMP280;10593;48.398;10.698;2022-10-31T14:10:26;96307.03;;;21.89
20867;BMP280;10593;48.398;10.698;2022-10-31T14:13:08;96307.03;;;21.89
20867;BMP280;10593;48.398;10.698;2022-10-31T14:15:43;96311.44;;;21.88
20867;BMP280;10593;48.398;10.698;2022-10-31T14:18:28;96302.84;;;21.86
20867;BMP280;10593;48.398;10.698;2022-10-31T14:20:54;96309.84;;;21.86
20867;BMP280;10593;48.398;10.698;2022-10-31T14:23:32;96301.97;;;21.86
20867;BMP280;10593;48.398;10.698;2022-10-31T14:28:53;96310.03;;;21.83
20867;BMP280;10593;48.398;10.698;2022-10-31T14:31:41;96302.19;;;21.83
20867;BMP280;10593;48.398;10.698;2022-10-31T14:34:36;96303.19;;;21.80
20867;BMP280;10593;48.398;10.698;2022-10-31T14:37:26;96290.22;;;21.79
20867;BMP280;10593;48.398;10.698;2022-10-31T14:40:42;96298.16;;;21.77
20867;BMP280;10593;48.398;10.698;2022-10-31T14:46:07;96292.06;;;21.77
20867;BMP280;10593;48.398;10.698;2022-10-31T14:51:47;96287.78;;;21.76
20867;BMP280;10593;48.398;10.698;2022-10-31T14:56:53;96285.94;;;21.78
20867;BMP280;10593;48.398;10.698;2022-10-31T14:59:31;96271.13;;;21.77
20867;BMP280;10593;48.398;10.698;2022-10-31T15:02:01;96271.13;;;21.77
20867;BMP280;10593;48.398;10.698;2022-10-31T15:04:35;96273.75;;;21.77
20867;BMP280;10593;48.398;10.698;2022-10-31T15:07:18;96261.53;;;21.77
20867;BMP280;10593;48.398;10.698;2022-10-31T15:10:30;96258.06;;;21.77
20867;BMP280;10593;48.398;10.698;2022-10-31T15:12:48;96255.56;;;21.75
20867;BMP280;10593;48.398;10.698;2022-10-31T15:15:19;96251.16;;;21.76
20867;BMP280;10593;48.398;10.698;2022-10-31T15:17:58;96255.56;;;21.75
20867;BMP280;10593;48.398;10.698;2022-10-31T15:20:27;96257.31;;;21.75
20867;BMP280;10593;48.398;10.698;2022-10-31T15:22:57;96246.84;;;21.75
20867;BMP280;10593;48.398;10.698;2022-10-31T15:25:27;96249.47;;;21.75
20867;BMP280;10593;48.398;10.698;2022-10-31T15:27:53;96252.09;;;21.75
20867;BMP280;10593;48.398;10.698;2022-10-31T15:30:28;96247.78;;;21.74
20867;BMP280;10593;48.398;10.698;2022-10-31T15:32:54;96249.56;;;21.73
20867;BMP280;10593;48.398;10.698;2022-10-31T15:35:30;96251.34;;;21.73
20867;BMP280;10593;48.398;10.698;2022-10-31T15:37:58;96247.91;;;21.72
20867;BMP280;10593;48.398;10.698;2022-10-31T15:40:26;96249.66;;;21.72
20867;BMP280;10593;48.398;10.698;2022-10-31T15:43:00;96249.66;;;21.72
20867;BMP280;10593;48.398;10.698;2022-10-31T15:45:30;96261.06;;;21.71
20867;BMP280;10593;48.398;10.698;2022-10-31T15:48:02;96245.38;;;21.71
20867;BMP280;10593;48.398;10.698;2022-10-31T15:50:41;96244.50;;;21.70
20867;BMP280;10593;48.398;10.698;2022-10-31T15:53:25;96244.63;;;21.69
20867;BMP280;10593;48.398;10.698;2022-10-31T15:56:02;96246.38;;;21.68
20867;BMP280;10593;48.398;10.698;2022-10-31T15:58:35;96252.66;;;21.66
20867;BMP280;10593;48.398;10.698;2022-10-31T16:01:22;96254.22;;;21.68
20867;BMP280;10593;48.398;10.698;2022-10-31T16:06:26;96237.91;;;21.65
20867;BMP280;10593;48.398;10.698;2022-10-31T16:08:52;96238.81;;;21.64
20867;BMP280;10593;48.398;10.698;2022-10-31T16:11:24;96240.53;;;21.65
20867;BMP280;10593;48.398;10.698;2022-10-31T16:13:56;96250.13;;;21.64
20867;BMP280;10593;48.398;10.698;2022-10-31T16:16:23;96250.22;;;21.63
20867;BMP280;10593;48.398;10.698;2022-10-31T16:18:52;96248.50;;;21.62
20867;BMP280;10593;48.398;10.698;2022-10-31T16:21:30;96245.88;;;21.62
20867;BMP280;10593;48.398;10.698;2022-10-31T16:24:04;96253.72;;;21.62